Terminal Aerodrome Forecast
Issued by NWS

Home | Current Version | Previous Version | Text Only | Print | Product List | Glossary On
Versions: 1 2 3 4 5 6 7 8 9 10 11 12 13 14
586
FTUS45 KTFX 171130
TAFGTF
TAF
KGTF 171130Z 1712/1812 21020G31KT P6SM BKN200
     FM180000 21018G28KT P6SM BKN200=

USA.gov is the U.S. government's official web portal to all federal, state and local government web resources and services.